Kristin D — C6XA6 — position and weather

sailwx.info

Track history (hours):
 
Tides and Currents Weather Stations Pressure Air Temp Water Temp Dewpoint Dewpoint Depression Visibility Wind Speed Wind Dir Waves Ship Positions

Kristin D

Last reported at 2015-Sep-05 00:34 UTC. Time now 2015-Sep-05 01:18 UTC.
Position N 51°10' E 001°45'.

Length 90 m; draft 3.9 m.

Type: Cargo ship. MMSI: 311003700.

Date/timePositionNaut miles runAvg speedWind from/ knotsBaromVisibWave heightAir tempDewpointWater temp
2015-Sep-05 00:34N 51°10' E 001°45'8 8.0
2015-Sep-04 23:34N 51°04' E 001°37'8 8.3
2015-Sep-04 22:34N 50°58' E 001°28'9 8.5
2015-Sep-04 21:34N 50°50' E 001°23'22 9.5
2015-Sep-04 19:12N 50°33' E 000°60'810.4
2015-Sep-04 18:27N 50°30' E 000°48'  
2015-Aug-27 03:19N 50°35' E 000°17'7 9.7
2015-Aug-27 02:34N 50°37' E 000°28'10 9.9
2015-Aug-27 01:34N 50°42' E 000°42'29 9.1
2015-Aug-26 22:25N 50°59' E 001°18'6 7.4
2015-Aug-26 21:33N 51°03' E 001°25'7 7.0
2015-Aug-26 20:34N 51°08' E 001°34'7 7.3
2015-Aug-26 19:34N 51°13' E 001°42'8 8.5
2015-Aug-26 18:34N 51°20' E 001°49'10 9.9
2015-Aug-26 17:34N 51°29' E 001°56'  
Track history (hours):
 
Tides and Currents Weather Stations Pressure Air Temp Water Temp Dewpoint Dewpoint Depression Visibility Wind Speed Wind Dir Waves Ship Positions

Kristin D

Last reported at 2015-Sep-05 00:34 UTC. Time now 2015-Sep-05 01:18 UTC.
Position N 51°10' E 001°45'.

Length 90 m; draft 3.9 m.

Type: Cargo ship. MMSI: 311003700.

Date/timePositionNaut miles runAvg speedWind from/ knotsBaromVisibWave heightAir tempDewpointWater temp
2015-Sep-05 00:34N 51°10' E 001°45'8 8.0
2015-Sep-04 23:34N 51°04' E 001°37'8 8.3
2015-Sep-04 22:34N 50°58' E 001°28'9 8.5
2015-Sep-04 21:34N 50°50' E 001°23'22 9.5
2015-Sep-04 19:12N 50°33' E 000°60'810.4
2015-Sep-04 18:27N 50°30' E 000°48'  
2015-Aug-27 03:19N 50°35' E 000°17'7 9.7
2015-Aug-27 02:34N 50°37' E 000°28'10 9.9
2015-Aug-27 01:34N 50°42' E 000°42'29 9.1
2015-Aug-26 22:25N 50°59' E 001°18'6 7.4
2015-Aug-26 21:33N 51°03' E 001°25'7 7.0
2015-Aug-26 20:34N 51°08' E 001°34'7 7.3
2015-Aug-26 19:34N 51°13' E 001°42'8 8.5
2015-Aug-26 18:34N 51°20' E 001°49'10 9.9
2015-Aug-26 17:34N 51°29' E 001°56'  

Dump ship's entire track history